sensor_id;sensor_type;location;lat;lon;timestamp;P1;durP1;ratioP1;P2;durP2;ratioP2
42944;SDS011;28584;42.636;23.294;2023-09-08T00:00:49;11.35;;;10.25;;
42944;SDS011;28584;42.636;23.294;2023-09-08T00:03:14;14.13;;;10.60;;
42944;SDS011;28584;42.636;23.294;2023-09-08T00:05:40;10.82;;;8.85;;
42944;SDS011;28584;42.636;23.294;2023-09-08T00:08:05;8.50;;;7.35;;
42944;SDS011;28584;42.636;23.294;2023-09-08T00:10:30;11.23;;;7.55;;
42944;SDS011;28584;42.636;23.294;2023-09-08T00:12:56;8.15;;;6.97;;
42944;SDS011;28584;42.636;23.294;2023-09-08T00:15:21;8.55;;;6.60;;
42944;SDS011;28584;42.636;23.294;2023-09-08T00:17:47;9.25;;;7.00;;
42944;SDS011;28584;42.636;23.294;2023-09-08T00:20:12;8.88;;;6.82;;
42944;SDS011;28584;42.636;23.294;2023-09-08T00:22:38;10.35;;;7.18;;
42944;SDS011;28584;42.636;23.294;2023-09-08T00:25:04;6.78;;;6.18;;
42944;SDS011;28584;42.636;23.294;2023-09-08T00:27:31;11.55;;;7.10;;
42944;SDS011;28584;42.636;23.294;2023-09-08T00:29:57;7.45;;;5.97;;
42944;SDS011;28584;42.636;23.294;2023-09-08T00:32:22;8.82;;;6.32;;
42944;SDS011;28584;42.636;23.294;2023-09-08T00:34:48;6.30;;;5.45;;
42944;SDS011;28584;42.636;23.294;2023-09-08T00:37:13;5.45;;;4.90;;
42944;SDS011;28584;42.636;23.294;2023-09-08T00:39:39;6.10;;;5.32;;
42944;SDS011;28584;42.636;23.294;2023-09-08T00:42:05;7.25;;;5.07;;
42944;SDS011;28584;42.636;23.294;2023-09-08T00:44:32;5.93;;;4.72;;
42944;SDS011;28584;42.636;23.294;2023-09-08T00:46:57;8.25;;;5.10;;
42944;SDS011;28584;42.636;23.294;2023-09-08T00:49:23;7.05;;;4.95;;
42944;SDS011;28584;42.636;23.294;2023-09-08T00:51:56;6.78;;;4.50;;
42944;SDS011;28584;42.636;23.294;2023-09-08T00:54:27;6.45;;;4.35;;
42944;SDS011;28584;42.636;23.294;2023-09-08T00:56:55;6.60;;;4.90;;
42944;SDS011;28584;42.636;23.294;2023-09-08T00:59:22;5.97;;;5.25;;
42944;SDS011;28584;42.636;23.294;2023-09-08T01:01:47;6.30;;;4.70;;
42944;SDS011;28584;42.636;23.294;2023-09-08T01:04:13;6.50;;;5.10;;
42944;SDS011;28584;42.636;23.294;2023-09-08T01:06:38;6.88;;;4.93;;
42944;SDS011;28584;42.636;23.294;2023-09-08T01:09:04;6.28;;;4.82;;
42944;SDS011;28584;42.636;23.294;2023-09-08T01:11:30;5.43;;;4.57;;
42944;SDS011;28584;42.636;23.294;2023-09-08T01:13:56;5.68;;;5.10;;
42944;SDS011;28584;42.636;23.294;2023-09-08T01:16:22;7.22;;;5.38;;
42944;SDS011;28584;42.636;23.294;2023-09-08T01:18:47;6.75;;;5.03;;
42944;SDS011;28584;42.636;23.294;2023-09-08T01:27:12;7.30;;;4.80;;
42944;SDS011;28584;42.636;23.294;2023-09-08T01:29:39;8.77;;;5.43;;
42944;SDS011;28584;42.636;23.294;2023-09-08T01:32:06;7.82;;;5.10;;
42944;SDS011;28584;42.636;23.294;2023-09-08T01:34:33;7.63;;;5.10;;
42944;SDS011;28584;42.636;23.294;2023-09-08T01:36:59;6.43;;;4.97;;
42944;SDS011;28584;42.636;23.294;2023-09-08T01:39:29;8.65;;;5.53;;
42944;SDS011;28584;42.636;23.294;2023-09-08T01:41:54;8.82;;;5.40;;
42944;SDS011;28584;42.636;23.294;2023-09-08T01:44:19;6.90;;;5.00;;
42944;SDS011;28584;42.636;23.294;2023-09-08T01:46:45;7.82;;;5.30;;
42944;SDS011;28584;42.636;23.294;2023-09-08T01:49:10;5.65;;;5.07;;
42944;SDS011;28584;42.636;23.294;2023-09-08T01:51:36;6.93;;;5.10;;
42944;SDS011;28584;42.636;23.294;2023-09-08T01:54:01;9.13;;;5.65;;
42944;SDS011;28584;42.636;23.294;2023-09-08T01:56:27;10.25;;;5.70;;
42944;SDS011;28584;42.636;23.294;2023-09-08T01:59:04;6.80;;;5.50;;
42944;SDS011;28584;42.636;23.294;2023-09-08T02:01:40;9.43;;;6.47;;
42944;SDS011;28584;42.636;23.294;2023-09-08T02:04:05;10.95;;;5.47;;
42944;SDS011;28584;42.636;23.294;2023-09-08T02:06:31;6.25;;;5.35;;
42944;SDS011;28584;42.636;23.294;2023-09-08T02:08:56;8.38;;;5.55;;
42944;SDS011;28584;42.636;23.294;2023-09-08T02:11:22;7.30;;;5.28;;
42944;SDS011;28584;42.636;23.294;2023-09-08T02:13:47;7.07;;;5.60;;
42944;SDS011;28584;42.636;23.294;2023-09-08T02:16:16;6.30;;;5.70;;
42944;SDS011;28584;42.636;23.294;2023-09-08T02:18:41;13.73;;;5.85;;
42944;SDS011;28584;42.636;23.294;2023-09-08T02:21:08;10.02;;;6.45;;
42944;SDS011;28584;42.636;23.294;2023-09-08T02:23:33;8.85;;;6.28;;
42944;SDS011;28584;42.636;23.294;2023-09-08T02:25:58;8.38;;;6.05;;
42944;SDS011;28584;42.636;23.294;2023-09-08T02:28:24;9.55;;;5.68;;
42944;SDS011;28584;42.636;23.294;2023-09-08T02:30:49;11.90;;;6.18;;
42944;SDS011;28584;42.636;23.294;2023-09-08T02:33:15;8.27;;;5.88;;
42944;SDS011;28584;42.636;23.294;2023-09-08T02:35:40;9.35;;;5.90;;
42944;SDS011;28584;42.636;23.294;2023-09-08T02:38:06;7.18;;;5.72;;
42944;SDS011;28584;42.636;23.294;2023-09-08T02:40:32;8.30;;;5.60;;
42944;SDS011;28584;42.636;23.294;2023-09-08T02:42:59;6.70;;;6.00;;
42944;SDS011;28584;42.636;23.294;2023-09-08T02:45:25;9.88;;;5.78;;
42944;SDS011;28584;42.636;23.294;2023-09-08T02:47:50;7.93;;;6.00;;
42944;SDS011;28584;42.636;23.294;2023-09-08T02:50:16;16.48;;;5.95;;
42944;SDS011;28584;42.636;23.294;2023-09-08T02:52:41;8.65;;;5.55;;
42944;SDS011;28584;42.636;23.294;2023-09-08T02:55:07;8.18;;;5.90;;
42944;SDS011;28584;42.636;23.294;2023-09-08T02:57:33;8.35;;;6.32;;
42944;SDS011;28584;42.636;23.294;2023-09-08T02:59:58;11.07;;;7.00;;
42944;SDS011;28584;42.636;23.294;2023-09-08T03:02:24;10.73;;;7.63;;
42944;SDS011;28584;42.636;23.294;2023-09-08T03:04:50;9.73;;;7.70;;
42944;SDS011;28584;42.636;23.294;2023-09-08T03:07:16;12.27;;;8.23;;
42944;SDS011;28584;42.636;23.294;2023-09-08T03:09:42;12.38;;;8.40;;
42944;SDS011;28584;42.636;23.294;2023-09-08T03:12:07;10.05;;;8.15;;
42944;SDS011;28584;42.636;23.294;2023-09-08T03:14:33;10.73;;;7.90;;
42944;SDS011;28584;42.636;23.294;2023-09-08T03:16:58;9.27;;;8.27;;
42944;SDS011;28584;42.636;23.294;2023-09-08T03:19:24;9.68;;;8.63;;
42944;SDS011;28584;42.636;23.294;2023-09-08T03:21:49;12.02;;;8.82;;
42944;SDS011;28584;42.636;23.294;2023-09-08T03:24:14;10.90;;;9.07;;
42944;SDS011;28584;42.636;23.294;2023-09-08T03:26:40;12.70;;;9.43;;
42944;SDS011;28584;42.636;23.294;2023-09-08T03:29:06;12.43;;;8.90;;
42944;SDS011;28584;42.636;23.294;2023-09-08T03:31:31;12.00;;;9.57;;
42944;SDS011;28584;42.636;23.294;2023-09-08T03:33:57;13.40;;;10.15;;
42944;SDS011;28584;42.636;23.294;2023-09-08T03:36:22;14.98;;;9.60;;
42944;SDS011;28584;42.636;23.294;2023-09-08T03:38:48;12.68;;;9.77;;
42944;SDS011;28584;42.636;23.294;2023-09-08T03:41:14;11.73;;;10.50;;
42944;SDS011;28584;42.636;23.294;2023-09-08T03:43:39;14.30;;;10.18;;
42944;SDS011;28584;42.636;23.294;2023-09-08T03:46:05;11.02;;;9.93;;
42944;SDS011;28584;42.636;23.294;2023-09-08T03:48:30;11.45;;;10.25;;
42944;SDS011;28584;42.636;23.294;2023-09-08T03:50:56;11.68;;;9.57;;
42944;SDS011;28584;42.636;23.294;2023-09-08T03:53:21;12.25;;;10.48;;
42944;SDS011;28584;42.636;23.294;2023-09-08T03:55:47;11.48;;;10.38;;
42944;SDS011;28584;42.636;23.294;2023-09-08T03:58:12;19.25;;;16.73;;
42944;SDS011;28584;42.636;23.294;2023-09-08T04:00:37;27.08;;;22.63;;
42944;SDS011;28584;42.636;23.294;2023-09-08T04:03:03;18.88;;;15.70;;
42944;SDS011;28584;42.636;23.294;2023-09-08T04:05:29;43.78;;;35.30;;
42944;SDS011;28584;42.636;23.294;2023-09-08T04:07:55;15.60;;;12.30;;
42944;SDS011;28584;42.636;23.294;2023-09-08T04:10:20;12.98;;;11.50;;
42944;SDS011;28584;42.636;23.294;2023-09-08T04:12:45;15.20;;;11.73;;
42944;SDS011;28584;42.636;23.294;2023-09-08T04:15:11;16.08;;;12.82;;
42944;SDS011;28584;42.636;23.294;2023-09-08T04:17:37;15.93;;;12.68;;
42944;SDS011;28584;42.636;23.294;2023-09-08T04:20:03;14.13;;;12.48;;
42944;SDS011;28584;42.636;23.294;2023-09-08T04:22:33;13.45;;;11.95;;
42944;SDS011;28584;42.636;23.294;2023-09-08T04:24:59;13.07;;;11.77;;
42944;SDS011;28584;42.636;23.294;2023-09-08T04:27:25;14.73;;;11.65;;
42944;SDS011;28584;42.636;23.294;2023-09-08T04:29:50;14.88;;;11.48;;
42944;SDS011;28584;42.636;23.294;2023-09-08T04:32:16;12.55;;;10.20;;
42944;SDS011;28584;42.636;23.294;2023-09-08T04:34:41;15.43;;;9.70;;
42944;SDS011;28584;42.636;23.294;2023-09-08T04:37:08;10.73;;;9.27;;
42944;SDS011;28584;42.636;23.294;2023-09-08T04:39:34;10.55;;;9.00;;
42944;SDS011;28584;42.636;23.294;2023-09-08T04:42:00;11.00;;;8.40;;
42944;SDS011;28584;42.636;23.294;2023-09-08T04:44:26;11.88;;;7.13;;
42944;SDS011;28584;42.636;23.294;2023-09-08T04:46:52;11.52;;;7.13;;
42944;SDS011;28584;42.636;23.294;2023-09-08T04:49:26;8.88;;;6.78;;
42944;SDS011;28584;42.636;23.294;2023-09-08T04:51:53;8.65;;;6.40;;
42944;SDS011;28584;42.636;23.294;2023-09-08T04:54:19;9.30;;;6.15;;
42944;SDS011;28584;42.636;23.294;2023-09-08T04:56:45;7.47;;;5.88;;
42944;SDS011;28584;42.636;23.294;2023-09-08T04:59:10;6.15;;;5.50;;
42944;SDS011;28584;42.636;23.294;2023-09-08T05:01:35;9.90;;;5.45;;
42944;SDS011;28584;42.636;23.294;2023-09-08T05:04:02;7.13;;;5.38;;
42944;SDS011;28584;42.636;23.294;2023-09-08T05:06:29;9.40;;;5.25;;
42944;SDS011;28584;42.636;23.294;2023-09-08T05:08:54;6.15;;;5.20;;
42944;SDS011;28584;42.636;23.294;2023-09-08T05:11:19;8.35;;;5.75;;
42944;SDS011;28584;42.636;23.294;2023-09-08T05:13:46;8.90;;;5.13;;
42944;SDS011;28584;42.636;23.294;2023-09-08T05:16:11;8.75;;;5.00;;
42944;SDS011;28584;42.636;23.294;2023-09-08T05:18:40;7.72;;;5.50;;
42944;SDS011;28584;42.636;23.294;2023-09-08T05:21:06;6.18;;;4.97;;
42944;SDS011;28584;42.636;23.294;2023-09-08T05:23:32;9.75;;;5.53;;
42944;SDS011;28584;42.636;23.294;2023-09-08T05:25:58;8.55;;;5.53;;
42944;SDS011;28584;42.636;23.294;2023-09-08T05:28:24;6.97;;;5.22;;
42944;SDS011;28584;42.636;23.294;2023-09-08T05:30:53;6.18;;;4.60;;
42944;SDS011;28584;42.636;23.294;2023-09-08T05:33:18;7.63;;;5.63;;
42944;SDS011;28584;42.636;23.294;2023-09-08T05:35:44;7.35;;;5.35;;
42944;SDS011;28584;42.636;23.294;2023-09-08T05:38:11;6.20;;;4.70;;
42944;SDS011;28584;42.636;23.294;2023-09-08T05:40:36;7.10;;;4.65;;
42944;SDS011;28584;42.636;23.294;2023-09-08T05:43:03;7.53;;;4.70;;
42944;SDS011;28584;42.636;23.294;2023-09-08T05:45:29;8.43;;;4.82;;
42944;SDS011;28584;42.636;23.294;2023-09-08T05:47:57;7.30;;;4.30;;
42944;SDS011;28584;42.636;23.294;2023-09-08T05:50:22;6.78;;;4.63;;
42944;SDS011;28584;42.636;23.294;2023-09-08T05:52:48;6.35;;;4.22;;
42944;SDS011;28584;42.636;23.294;2023-09-08T05:55:13;7.40;;;4.57;;
42944;SDS011;28584;42.636;23.294;2023-09-08T05:57:39;5.93;;;4.50;;
42944;SDS011;28584;42.636;23.294;2023-09-08T06:00:06;6.07;;;4.43;;
42944;SDS011;28584;42.636;23.294;2023-09-08T06:02:32;7.35;;;4.88;;
42944;SDS011;28584;42.636;23.294;2023-09-08T06:04:57;8.68;;;5.38;;
42944;SDS011;28584;42.636;23.294;2023-09-08T06:07:23;8.75;;;4.32;;
42944;SDS011;28584;42.636;23.294;2023-09-08T06:09:48;7.68;;;4.03;;
42944;SDS011;28584;42.636;23.294;2023-09-08T06:12:13;4.22;;;3.83;;
42944;SDS011;28584;42.636;23.294;2023-09-08T06:14:39;7.72;;;4.43;;
42944;SDS011;28584;42.636;23.294;2023-09-08T06:17:04;10.43;;;4.65;;
42944;SDS011;28584;42.636;23.294;2023-09-08T06:19:30;10.18;;;3.97;;
42944;SDS011;28584;42.636;23.294;2023-09-08T06:21:55;8.88;;;4.05;;
42944;SDS011;28584;42.636;23.294;2023-09-08T06:24:20;4.85;;;3.58;;
42944;SDS011;28584;42.636;23.294;2023-09-08T06:26:46;7.65;;;4.05;;
42944;SDS011;28584;42.636;23.294;2023-09-08T06:29:11;8.13;;;4.10;;
42944;SDS011;28584;42.636;23.294;2023-09-08T06:31:37;9.27;;;4.30;;
42944;SDS011;28584;42.636;23.294;2023-09-08T06:34:02;8.93;;;3.70;;
42944;SDS011;28584;42.636;23.294;2023-09-08T06:36:28;6.43;;;4.15;;
42944;SDS011;28584;42.636;23.294;2023-09-08T06:38:53;7.13;;;3.85;;
42944;SDS011;28584;42.636;23.294;2023-09-08T06:41:18;8.90;;;4.75;;
42944;SDS011;28584;42.636;23.294;2023-09-08T06:43:44;6.68;;;3.75;;
42944;SDS011;28584;42.636;23.294;2023-09-08T06:46:10;7.07;;;3.95;;
42944;SDS011;28584;42.636;23.294;2023-09-08T06:48:35;5.05;;;3.70;;
42944;SDS011;28584;42.636;23.294;2023-09-08T06:51:00;10.15;;;4.20;;
42944;SDS011;28584;42.636;23.294;2023-09-08T06:53:26;4.72;;;3.70;;
42944;SDS011;28584;42.636;23.294;2023-09-08T06:55:51;6.32;;;3.85;;
42944;SDS011;28584;42.636;23.294;2023-09-08T06:58:17;7.72;;;3.90;;
42944;SDS011;28584;42.636;23.294;2023-09-08T07:00:42;3.88;;;3.33;;
42944;SDS011;28584;42.636;23.294;2023-09-08T07:03:08;6.32;;;4.28;;
42944;SDS011;28584;42.636;23.294;2023-09-08T07:05:34;11.80;;;3.45;;
42944;SDS011;28584;42.636;23.294;2023-09-08T07:08:00;5.80;;;3.95;;
42944;SDS011;28584;42.636;23.294;2023-09-08T07:10:25;6.30;;;3.65;;
42944;SDS011;28584;42.636;23.294;2023-09-08T07:12:51;5.40;;;3.88;;
42944;SDS011;28584;42.636;23.294;2023-09-08T07:15:16;6.13;;;3.53;;
42944;SDS011;28584;42.636;23.294;2023-09-08T07:17:42;5.45;;;4.00;;
42944;SDS011;28584;42.636;23.294;2023-09-08T07:20:08;6.10;;;3.75;;
42944;SDS011;28584;42.636;23.294;2023-09-08T07:22:33;6.47;;;3.80;;
42944;SDS011;28584;42.636;23.294;2023-09-08T07:24:59;7.88;;;3.92;;
42944;SDS011;28584;42.636;23.294;2023-09-08T07:27:24;7.43;;;3.80;;
42944;SDS011;28584;42.636;23.294;2023-09-08T07:29:50;7.53;;;3.80;;
42944;SDS011;28584;42.636;23.294;2023-09-08T07:32:18;6.43;;;3.40;;
42944;SDS011;28584;42.636;23.294;2023-09-08T07:34:44;5.82;;;4.03;;
42944;SDS011;28584;42.636;23.294;2023-09-08T07:37:09;6.97;;;4.20;;
42944;SDS011;28584;42.636;23.294;2023-09-08T07:39:35;8.40;;;4.25;;
42944;SDS011;28584;42.636;23.294;2023-09-08T07:42:01;7.57;;;3.80;;
42944;SDS011;28584;42.636;23.294;2023-09-08T07:44:26;6.90;;;3.55;;
42944;SDS011;28584;42.636;23.294;2023-09-08T07:46:52;6.10;;;3.45;;
42944;SDS011;28584;42.636;23.294;2023-09-08T07:49:18;5.55;;;3.22;;
42944;SDS011;28584;42.636;23.294;2023-09-08T07:51:45;7.85;;;3.75;;
42944;SDS011;28584;42.636;23.294;2023-09-08T07:54:10;5.13;;;3.75;;
42944;SDS011;28584;42.636;23.294;2023-09-08T07:56:36;6.28;;;3.78;;
42944;SDS011;28584;42.636;23.294;2023-09-08T07:59:01;5.70;;;3.35;;
42944;SDS011;28584;42.636;23.294;2023-09-08T08:01:27;4.53;;;3.25;;
42944;SDS011;28584;42.636;23.294;2023-09-08T08:03:53;3.72;;;3.08;;
42944;SDS011;28584;42.636;23.294;2023-09-08T08:06:18;5.82;;;3.53;;
42944;SDS011;28584;42.636;23.294;2023-09-08T08:08:43;8.80;;;3.92;;
42944;SDS011;28584;42.636;23.294;2023-09-08T08:11:13;7.38;;;3.97;;
42944;SDS011;28584;42.636;23.294;2023-09-08T08:13:39;5.85;;;3.40;;
42944;SDS011;28584;42.636;23.294;2023-09-08T08:16:05;3.75;;;3.05;;
42944;SDS011;28584;42.636;23.294;2023-09-08T08:18:30;3.90;;;3.05;;
42944;SDS011;28584;42.636;23.294;2023-09-08T08:20:56;4.40;;;3.28;;
42944;SDS011;28584;42.636;23.294;2023-09-08T08:23:22;4.50;;;3.03;;
42944;SDS011;28584;42.636;23.294;2023-09-08T08:25:48;8.10;;;3.40;;
42944;SDS011;28584;42.636;23.294;2023-09-08T08:28:14;5.78;;;3.70;;
42944;SDS011;28584;42.636;23.294;2023-09-08T08:30:40;3.85;;;3.40;;
42944;SDS011;28584;42.636;23.294;2023-09-08T08:33:05;4.82;;;3.63;;
42944;SDS011;28584;42.636;23.294;2023-09-08T08:35:31;3.95;;;3.40;;
42944;SDS011;28584;42.636;23.294;2023-09-08T08:37:59;4.35;;;3.08;;
42944;SDS011;28584;42.636;23.294;2023-09-08T08:40:25;5.07;;;3.15;;
42944;SDS011;28584;42.636;23.294;2023-09-08T08:42:55;5.13;;;3.30;;
42944;SDS011;28584;42.636;23.294;2023-09-08T08:45:22;5.35;;;3.25;;
42944;SDS011;28584;42.636;23.294;2023-09-08T08:47:58;5.03;;;2.78;;
42944;SDS011;28584;42.636;23.294;2023-09-08T08:50:24;5.10;;;3.40;;
42944;SDS011;28584;42.636;23.294;2023-09-08T08:52:49;5.22;;;3.17;;
42944;SDS011;28584;42.636;23.294;2023-09-08T08:55:15;5.55;;;4.20;;
42944;SDS011;28584;42.636;23.294;2023-09-08T08:57:40;7.65;;;3.72;;
42944;SDS011;28584;42.636;23.294;2023-09-08T09:00:07;7.88;;;3.28;;
42944;SDS011;28584;42.636;23.294;2023-09-08T09:02:41;5.35;;;3.28;;
42944;SDS011;28584;42.636;23.294;2023-09-08T09:05:13;4.40;;;3.08;;
42944;SDS011;28584;42.636;23.294;2023-09-08T09:07:39;7.78;;;4.00;;
42944;SDS011;28584;42.636;23.294;2023-09-08T09:10:07;6.10;;;3.30;;
42944;SDS011;28584;42.636;23.294;2023-09-08T09:12:33;6.53;;;3.58;;
42944;SDS011;28584;42.636;23.294;2023-09-08T09:14:59;8.23;;;3.80;;
42944;SDS011;28584;42.636;23.294;2023-09-08T09:17:25;8.63;;;3.42;;
42944;SDS011;28584;42.636;23.294;2023-09-08T09:19:51;4.10;;;3.35;;
42944;SDS011;28584;42.636;23.294;2023-09-08T09:22:36;6.70;;;3.80;;
42944;SDS011;28584;42.636;23.294;2023-09-08T09:25:02;7.03;;;3.78;;
42944;SDS011;28584;42.636;23.294;2023-09-08T09:27:30;3.95;;;3.20;;
42944;SDS011;28584;42.636;23.294;2023-09-08T09:29:56;6.35;;;3.42;;
42944;SDS011;28584;42.636;23.294;2023-09-08T09:32:23;5.10;;;3.53;;
42944;SDS011;28584;42.636;23.294;2023-09-08T09:34:53;5.53;;;3.50;;
42944;SDS011;28584;42.636;23.294;2023-09-08T09:37:19;5.68;;;3.50;;
42944;SDS011;28584;42.636;23.294;2023-09-08T09:39:52;5.78;;;3.42;;
42944;SDS011;28584;42.636;23.294;2023-09-08T09:42:18;6.10;;;4.07;;
42944;SDS011;28584;42.636;23.294;2023-09-08T09:44:49;5.78;;;3.60;;
42944;SDS011;28584;42.636;23.294;2023-09-08T09:47:17;4.85;;;4.05;;
42944;SDS011;28584;42.636;23.294;2023-09-08T09:49:44;6.47;;;4.00;;
42944;SDS011;28584;42.636;23.294;2023-09-08T09:52:14;4.35;;;3.67;;
42944;SDS011;28584;42.636;23.294;2023-09-08T09:54:44;5.50;;;3.83;;
42944;SDS011;28584;42.636;23.294;2023-09-08T09:57:14;6.00;;;3.60;;
42944;SDS011;28584;42.636;23.294;2023-09-08T09:59:42;6.90;;;3.70;;
42944;SDS011;28584;42.636;23.294;2023-09-08T10:02:10;5.60;;;3.65;;
42944;SDS011;28584;42.636;23.294;2023-09-08T10:04:38;4.65;;;3.78;;
42944;SDS011;28584;42.636;23.294;2023-09-08T10:07:05;5.47;;;4.18;;
42944;SDS011;28584;42.636;23.294;2023-09-08T10:09:31;4.70;;;3.60;;
42944;SDS011;28584;42.636;23.294;2023-09-08T10:11:56;6.40;;;3.85;;
42944;SDS011;28584;42.636;23.294;2023-09-08T10:14:28;6.95;;;3.90;;
42944;SDS011;28584;42.636;23.294;2023-09-08T10:16:56;6.00;;;4.00;;
42944;SDS011;28584;42.636;23.294;2023-09-08T10:19:24;6.45;;;3.65;;
42944;SDS011;28584;42.636;23.294;2023-09-08T10:21:51;5.97;;;4.07;;
42944;SDS011;28584;42.636;23.294;2023-09-08T10:24:23;4.15;;;3.75;;
42944;SDS011;28584;42.636;23.294;2023-09-08T10:26:54;5.00;;;3.25;;
42944;SDS011;28584;42.636;23.294;2023-09-08T10:29:25;5.97;;;3.90;;
42944;SDS011;28584;42.636;23.294;2023-09-08T10:31:52;6.18;;;3.70;;
42944;SDS011;28584;42.636;23.294;2023-09-08T10:34:19;6.32;;;3.78;;
42944;SDS011;28584;42.636;23.294;2023-09-08T10:36:46;5.95;;;3.20;;
42944;SDS011;28584;42.636;23.294;2023-09-08T10:39:27;8.75;;;3.60;;
42944;SDS011;28584;42.636;23.294;2023-09-08T10:44:55;4.43;;;3.78;;
42944;SDS011;28584;42.636;23.294;2023-09-08T10:47:23;5.53;;;3.72;;
42944;SDS011;28584;42.636;23.294;2023-09-08T10:49:50;8.35;;;3.80;;
42944;SDS011;28584;42.636;23.294;2023-09-08T10:52:18;8.45;;;3.70;;
42944;SDS011;28584;42.636;23.294;2023-09-08T10:54:49;5.85;;;3.78;;
42944;SDS011;28584;42.636;23.294;2023-09-08T10:57:17;5.75;;;3.67;;
42944;SDS011;28584;42.636;23.294;2023-09-08T10:59:45;4.35;;;3.17;;
42944;SDS011;28584;42.636;23.294;2023-09-08T11:05:13;6.30;;;4.10;;
42944;SDS011;28584;42.636;23.294;2023-09-08T11:07:40;6.32;;;3.60;;
42944;SDS011;28584;42.636;23.294;2023-09-08T11:10:07;6.45;;;3.92;;
42944;SDS011;28584;42.636;23.294;2023-09-08T11:12:33;6.70;;;3.80;;
42944;SDS011;28584;42.636;23.294;2023-09-08T11:15:03;4.20;;;3.80;;
42944;SDS011;28584;42.636;23.294;2023-09-08T11:17:39;6.20;;;4.45;;
42944;SDS011;28584;42.636;23.294;2023-09-08T11:20:06;5.60;;;3.67;;
42944;SDS011;28584;42.636;23.294;2023-09-08T11:22:34;8.88;;;4.22;;
42944;SDS011;28584;42.636;23.294;2023-09-08T11:25:00;9.13;;;4.07;;
42944;SDS011;28584;42.636;23.294;2023-09-08T11:27:29;8.98;;;3.55;;
42944;SDS011;28584;42.636;23.294;2023-09-08T11:29:55;6.25;;;4.28;;
42944;SDS011;28584;42.636;23.294;2023-09-08T11:32:22;5.05;;;4.28;;
42944;SDS011;28584;42.636;23.294;2023-09-08T11:34:48;6.03;;;3.45;;
42944;SDS011;28584;42.636;23.294;2023-09-08T11:37:15;7.40;;;4.15;;
42944;SDS011;28584;42.636;23.294;2023-09-08T11:39:43;7.78;;;4.53;;
42944;SDS011;28584;42.636;23.294;2023-09-08T11:42:11;7.28;;;5.18;;
42944;SDS011;28584;42.636;23.294;2023-09-08T11:44:38;10.70;;;7.85;;
42944;SDS011;28584;42.636;23.294;2023-09-08T11:47:07;6.70;;;3.80;;
42944;SDS011;28584;42.636;23.294;2023-09-08T11:49:37;5.35;;;4.00;;
42944;SDS011;28584;42.636;23.294;2023-09-08T11:52:05;7.55;;;4.28;;
42944;SDS011;28584;42.636;23.294;2023-09-08T11:54:31;7.13;;;3.80;;
42944;SDS011;28584;42.636;23.294;2023-09-08T11:57:01;5.40;;;3.72;;
42944;SDS011;28584;42.636;23.294;2023-09-08T11:59:28;7.78;;;4.30;;
42944;SDS011;28584;42.636;23.294;2023-09-08T12:01:57;9.35;;;3.83;;
42944;SDS011;28584;42.636;23.294;2023-09-08T12:04:23;9.40;;;4.15;;
42944;SDS011;28584;42.636;23.294;2023-09-08T12:06:49;8.38;;;4.07;;
42944;SDS011;28584;42.636;23.294;2023-09-08T12:09:16;6.07;;;4.03;;
42944;SDS011;28584;42.636;23.294;2023-09-08T12:11:41;6.45;;;3.85;;
42944;SDS011;28584;42.636;23.294;2023-09-08T12:14:11;5.18;;;3.88;;
42944;SDS011;28584;42.636;23.294;2023-09-08T12:16:38;5.22;;;3.60;;
42944;SDS011;28584;42.636;23.294;2023-09-08T12:19:04;7.03;;;4.68;;
42944;SDS011;28584;42.636;23.294;2023-09-08T12:21:30;4.47;;;3.95;;
42944;SDS011;28584;42.636;23.294;2023-09-08T12:23:57;5.03;;;4.05;;
42944;SDS011;28584;42.636;23.294;2023-09-08T12:26:26;4.88;;;4.43;;
42944;SDS011;28584;42.636;23.294;2023-09-08T12:28:52;5.50;;;4.28;;
42944;SDS011;28584;42.636;23.294;2023-09-08T12:31:18;4.32;;;3.78;;
42944;SDS011;28584;42.636;23.294;2023-09-08T12:33:43;6.82;;;4.15;;
42944;SDS011;28584;42.636;23.294;2023-09-08T12:36:13;5.22;;;4.28;;
42944;SDS011;28584;42.636;23.294;2023-09-08T12:38:40;5.50;;;3.80;;
42944;SDS011;28584;42.636;23.294;2023-09-08T12:41:06;8.65;;;4.15;;
42944;SDS011;28584;42.636;23.294;2023-09-08T12:43:31;4.93;;;4.03;;
42944;SDS011;28584;42.636;23.294;2023-09-08T12:45:56;5.05;;;3.63;;
42944;SDS011;28584;42.636;23.294;2023-09-08T12:48:22;5.68;;;4.30;;
42944;SDS011;28584;42.636;23.294;2023-09-08T12:50:48;6.43;;;4.45;;
42944;SDS011;28584;42.636;23.294;2023-09-08T12:53:14;6.75;;;4.18;;
42944;SDS011;28584;42.636;23.294;2023-09-08T12:55:40;6.78;;;4.03;;
42944;SDS011;28584;42.636;23.294;2023-09-08T12:58:05;5.13;;;4.55;;
42944;SDS011;28584;42.636;23.294;2023-09-08T13:00:31;8.10;;;4.10;;
42944;SDS011;28584;42.636;23.294;2023-09-08T13:02:56;5.63;;;3.65;;
42944;SDS011;28584;42.636;23.294;2023-09-08T13:05:23;9.38;;;4.30;;
42944;SDS011;28584;42.636;23.294;2023-09-08T13:07:48;6.18;;;4.30;;
42944;SDS011;28584;42.636;23.294;2023-09-08T13:10:14;4.53;;;3.88;;
42944;SDS011;28584;42.636;23.294;2023-09-08T13:12:40;5.75;;;4.07;;
42944;SDS011;28584;42.636;23.294;2023-09-08T13:15:06;6.90;;;4.60;;
42944;SDS011;28584;42.636;23.294;2023-09-08T13:17:32;6.93;;;4.10;;
42944;SDS011;28584;42.636;23.294;2023-09-08T13:19:57;6.43;;;4.22;;
42944;SDS011;28584;42.636;23.294;2023-09-08T13:22:23;7.30;;;4.32;;
42944;SDS011;28584;42.636;23.294;2023-09-08T13:24:48;6.13;;;3.97;;
42944;SDS011;28584;42.636;23.294;2023-09-08T13:27:14;8.73;;;5.05;;
42944;SDS011;28584;42.636;23.294;2023-09-08T13:29:42;7.20;;;4.10;;
42944;SDS011;28584;42.636;23.294;2023-09-08T13:32:07;5.50;;;4.28;;
42944;SDS011;28584;42.636;23.294;2023-09-08T13:34:33;6.75;;;4.80;;
42944;SDS011;28584;42.636;23.294;2023-09-08T13:37:00;7.20;;;4.47;;
42944;SDS011;28584;42.636;23.294;2023-09-08T13:39:27;5.80;;;4.63;;
42944;SDS011;28584;42.636;23.294;2023-09-08T13:41:53;5.65;;;4.20;;
42944;SDS011;28584;42.636;23.294;2023-09-08T13:44:20;4.55;;;3.97;;
42944;SDS011;28584;42.636;23.294;2023-09-08T13:46:47;9.30;;;4.88;;
42944;SDS011;28584;42.636;23.294;2023-09-08T13:49:14;8.40;;;4.38;;
42944;SDS011;28584;42.636;23.294;2023-09-08T13:51:39;8.95;;;4.65;;
42944;SDS011;28584;42.636;23.294;2023-09-08T13:54:05;7.05;;;4.47;;
42944;SDS011;28584;42.636;23.294;2023-09-08T13:56:32;5.18;;;3.65;;
42944;SDS011;28584;42.636;23.294;2023-09-08T13:58:57;5.60;;;4.43;;
42944;SDS011;28584;42.636;23.294;2023-09-08T14:01:22;6.53;;;4.72;;
42944;SDS011;28584;42.636;23.294;2023-09-08T14:03:48;6.63;;;4.30;;
42944;SDS011;28584;42.636;23.294;2023-09-08T14:06:17;5.43;;;4.10;;
42944;SDS011;28584;42.636;23.294;2023-09-08T14:08:43;4.70;;;4.00;;
42944;SDS011;28584;42.636;23.294;2023-09-08T14:11:09;9.35;;;4.85;;
42944;SDS011;28584;42.636;23.294;2023-09-08T14:13:34;6.63;;;4.13;;
42944;SDS011;28584;42.636;23.294;2023-09-08T14:16:00;6.20;;;4.28;;
42944;SDS011;28584;42.636;23.294;2023-09-08T14:18:25;8.32;;;4.65;;
42944;SDS011;28584;42.636;23.294;2023-09-08T14:20:51;5.25;;;4.55;;
42944;SDS011;28584;42.636;23.294;2023-09-08T14:23:16;7.10;;;4.38;;
42944;SDS011;28584;42.636;23.294;2023-09-08T14:25:41;5.45;;;4.32;;
42944;SDS011;28584;42.636;23.294;2023-09-08T14:28:07;6.97;;;4.13;;
42944;SDS011;28584;42.636;23.294;2023-09-08T14:30:33;6.13;;;3.88;;
42944;SDS011;28584;42.636;23.294;2023-09-08T14:32:59;8.93;;;4.20;;
42944;SDS011;28584;42.636;23.294;2023-09-08T14:35:25;6.30;;;3.90;;
42944;SDS011;28584;42.636;23.294;2023-09-08T14:37:50;5.45;;;4.35;;